Time;durP1;ratioP1;P1;durP2;ratioP2;P2;SDS_P1;SDS_P2;PMS_P1;PMS_P2;Temp;Humidity;BMP_temperature;BMP_pressure;BME280_temperature;BME280_humidity;BME280_pressure;Samples;Min_cycle;Max_cycle;Signal;HPM_P1;HPM_P2
2021/08/13 00:01:39;;;;;;;10.50;8.67;;;;;;;18.95;98.85;96304.06;5031311;28;20510;-75
2021/08/13 00:04:04;;;;;;;9.37;8.03;;;;;;;18.79;99.96;96309.00;5030882;28;20481;-75
2021/08/13 00:06:30;;;;;;;10.83;8.33;;;;;;;18.60;100.00;96297.44;5028886;28;20419;-75
2021/08/13 00:08:57;;;;;;;11.20;8.73;;;;;;;18.63;100.00;96302.41;5030573;28;20860;-75
2021/08/13 00:11:22;;;;;;;9.23;8.10;;;;;;;18.73;100.00;96304.28;5030307;28;20855;-76
2021/08/13 00:13:47;;;;;;;12.13;8.60;;;;;;;18.75;100.00;96312.84;5030422;28;20411;-75
2021/08/13 00:16:13;;;;;;;10.02;7.75;;;;;;;18.83;100.00;96310.38;5030074;28;20490;-76
2021/08/13 00:18:38;;;;;;;11.27;8.23;;;;;;;18.90;99.65;96310.69;5030397;28;20407;-75
2021/08/13 00:21:04;;;;;;;12.57;8.50;;;;;;;18.84;100.00;96314.69;5030404;28;20502;-75
2021/08/13 00:23:29;;;;;;;11.52;8.20;;;;;;;18.85;100.00;96313.72;5030325;28;20395;-75
2021/08/13 00:25:56;;;;;;;11.00;8.57;;;;;;;18.80;100.00;96306.25;5030033;28;20422;-75
2021/08/13 00:28:21;;;;;;;19.80;9.07;;;;;;;18.82;100.00;96306.09;5029094;28;20446;-75
2021/08/13 00:30:47;;;;;;;10.65;8.15;;;;;;;18.86;100.00;96312.75;5030297;28;20423;-75
2021/08/13 00:33:12;;;;;;;11.17;8.07;;;;;;;18.85;100.00;96311.09;5030103;28;20492;-75
2021/08/13 00:35:37;;;;;;;8.77;7.50;;;;;;;18.90;100.00;96308.88;5030029;28;20439;-75
2021/08/13 00:38:03;;;;;;;12.45;7.90;;;;;;;18.93;100.00;96315.66;5030124;28;20455;-75
2021/08/13 00:40:29;;;;;;;9.63;7.73;;;;;;;18.90;100.00;96313.31;5030373;28;20411;-75
2021/08/13 00:42:55;;;;;;;9.30;7.60;;;;;;;18.89;100.00;96307.22;5030190;28;20772;-76
2021/08/13 00:45:21;;;;;;;13.07;7.45;;;;;;;18.89;100.00;96307.22;5029838;28;20758;-75
2021/08/13 00:47:47;;;;;;;8.93;7.20;;;;;;;18.93;100.00;96318.28;5029984;28;20429;-75
2021/08/13 00:50:13;;;;;;;10.15;8.30;;;;;;;18.93;100.00;96319.13;5028946;28;20836;-76
2021/08/13 00:52:38;;;;;;;12.80;8.40;;;;;;;18.86;100.00;96303.06;5045347;28;20454;-75
2021/08/13 00:55:05;;;;;;;12.37;7.77;;;;;;;18.74;100.00;96308.56;5030086;28;20415;-76
2021/08/13 00:57:30;;;;;;;10.15;7.88;;;;;;;18.79;100.00;96315.06;5029659;28;20435;-75
2021/08/13 00:59:57;;;;;;;11.23;8.03;;;;;;;18.80;100.00;96321.13;5030074;28;20485;-75
2021/08/13 01:02:24;;;;;;;10.00;7.60;;;;;;;18.65;100.00;96330.31;5030685;28;20419;-75
2021/08/13 01:04:49;;;;;;;14.85;8.25;;;;;;;18.51;100.00;96332.34;5033551;28;20514;-75
2021/08/13 01:07:15;;;;;;;11.27;8.40;;;;;;;18.30;100.00;96335.00;5033194;28;20458;-75
2021/08/13 01:09:41;;;;;;;10.60;8.50;;;;;;;18.11;100.00;96340.97;5033579;28;20908;-74
2021/08/13 01:12:15;;;;;;;9.87;8.53;;;;;;;18.06;100.00;96339.69;5033369;28;20435;-75
2021/08/13 01:14:48;;;;;;;9.90;8.18;;;;;;;18.03;100.00;96338.16;5033329;28;20419;-76
2021/08/13 01:17:17;;;;;;;19.70;8.60;;;;;;;18.09;100.00;96339.41;5031783;28;20916;-75
2021/08/13 01:19:56;;;;;;;12.20;8.07;;;;;;;18.26;100.00;96336.22;5032047;28;20980;-75
2021/08/13 01:22:25;;;;;;;10.85;8.57;;;;;;;18.38;100.00;96329.09;5031895;28;20476;-75
2021/08/13 01:24:52;;;;;;;11.37;8.13;;;;;;;18.38;100.00;96331.72;5033254;28;20820;-75
2021/08/13 01:27:23;;;;;;;9.65;8.05;;;;;;;18.47;100.00;96338.00;5032746;28;20484;-75
2021/08/13 01:29:52;;;;;;;10.55;8.32;;;;;;;18.55;100.00;96332.91;5031935;28;20481;-76
2021/08/13 01:32:35;;;;;;;13.20;8.38;;;;;;;18.59;100.00;96336.94;5032992;28;20423;-75
2021/08/13 01:35:05;;;;;;;12.98;8.27;;;;;;;18.63;100.00;96338.31;5033078;28;20429;-75
2021/08/13 01:37:33;;;;;;;8.70;7.80;;;;;;;18.66;100.00;96337.25;5031143;28;20488;-75
2021/08/13 01:40:01;;;;;;;10.80;7.87;;;;;;;18.69;100.00;96342.19;5032880;28;20454;-75
2021/08/13 01:42:28;;;;;;;10.55;8.00;;;;;;;18.78;100.00;96328.34;5032790;28;20499;-76
2021/08/13 01:44:56;;;;;;;8.70;7.63;;;;;;;18.74;100.00;96329.56;5031656;28;20466;-75
2021/08/13 01:47:23;;;;;;;9.10;7.00;;;;;;;18.57;100.00;96326.56;5032517;28;20797;-75
2021/08/13 01:49:50;;;;;;;9.40;7.82;;;;;;;18.40;100.00;96334.22;5031454;28;20407;-75
2021/08/13 01:52:17;;;;;;;10.48;7.10;;;;;;;18.34;100.00;96332.94;5032552;28;20431;-75
2021/08/13 01:54:43;;;;;;;9.23;8.05;;;;;;;18.35;100.00;96332.81;5032636;28;20892;-75
2021/08/13 01:57:09;;;;;;;9.45;8.00;;;;;;;18.34;100.00;96330.31;5030924;28;20929;-76
2021/08/13 01:59:35;;;;;;;10.63;7.57;;;;;;;18.44;100.00;96325.97;5031280;28;20415;-75
2021/08/13 02:02:00;;;;;;;10.45;7.13;;;;;;;18.64;99.72;96326.84;5031677;28;20415;-75
2021/08/13 02:04:26;;;;;;;10.30;7.90;;;;;;;18.42;100.00;96325.25;5032541;28;20823;-75
2021/08/13 02:06:54;;;;;;;9.00;7.23;;;;;;;18.23;100.00;96320.75;5030749;28;20486;-75
2021/08/13 02:09:20;;;;;;;11.75;7.90;;;;;;;18.27;100.00;96321.31;5032321;28;20502;-75
2021/08/13 02:11:46;;;;;;;10.30;7.30;;;;;;;18.18;100.00;96317.69;5032319;28;20847;-76
2021/08/13 02:14:13;;;;;;;8.88;7.28;;;;;;;18.17;100.00;96315.19;5030141;28;20780;-75
2021/08/13 02:16:41;;;;;;;10.02;7.85;;;;;;;18.15;100.00;96307.44;5031860;28;20419;-75
2021/08/13 02:19:13;;;;;;;10.50;7.70;;;;;;;18.17;100.00;96312.56;5032196;28;20477;-75
2021/08/13 02:21:41;;;;;;;9.25;7.57;;;;;;;18.30;100.00;96311.41;5032208;28;20415;-75
2021/08/13 02:24:08;;;;;;;12.00;7.88;;;;;;;18.42;100.00;96298.19;5032229;28;20434;-75
2021/08/13 02:26:34;;;;;;;9.43;7.43;;;;;;;18.24;100.00;96313.69;5032012;28;20477;-75
2021/08/13 02:29:01;;;;;;;8.82;7.53;;;;;;;18.19;100.00;96314.09;5032015;28;20920;-76
2021/08/13 02:31:27;;;;;;;11.00;8.68;;;;;;;18.04;100.00;96310.16;5030934;28;20928;-75
2021/08/13 02:33:53;;;;;;;13.55;8.48;;;;;;;18.01;100.00;96313.84;5031673;28;20434;-75
2021/08/13 02:38:55;;;;;;;11.95;8.38;;;;;;;18.06;100.00;96305.63;5030813;28;20481;-76
2021/08/13 02:41:23;;;;;;;10.25;7.72;;;;;;;18.11;100.00;96312.13;5014215;28;20789;-76
2021/08/13 02:43:53;;;;;;;10.27;7.85;;;;;;;18.04;100.00;96318.84;5014288;28;20418;-76
2021/08/13 02:46:20;;;;;;;10.18;8.43;;;;;;;17.94;100.00;96328.41;5031670;28;20792;-76
2021/08/13 02:48:48;;;;;;;9.57;7.88;;;;;;;17.97;100.00;96322.09;5030383;28;20468;-76
2021/08/13 02:51:16;;;;;;;13.77;8.10;;;;;;;18.12;100.00;96316.41;5031683;28;20514;-76
2021/08/13 02:53:46;;;;;;;9.40;8.27;;;;;;;18.22;100.00;96305.16;5031560;28;20481;-76
2021/08/13 02:56:13;;;;;;;11.77;8.57;;;;;;;18.25;100.00;96312.75;5031402;28;20503;-76
2021/08/13 02:58:43;;;;;;;9.77;8.40;;;;;;;18.26;100.00;96315.25;5030208;28;20427;-76
2021/08/13 03:01:12;;;;;;;16.58;8.40;;;;;;;18.22;100.00;96313.03;5031470;28;20468;-76
2021/08/13 03:03:39;;;;;;;11.07;8.32;;;;;;;18.19;100.00;96310.66;5031717;28;20764;-76
2021/08/13 03:06:08;;;;;;;10.15;8.60;;;;;;;18.11;100.00;96314.75;5031317;28;20411;-76
2021/08/13 03:08:34;;;;;;;15.23;9.23;;;;;;;17.97;100.00;96337.81;5029901;28;20438;-76
2021/08/13 03:11:03;;;;;;;9.00;7.60;;;;;;;18.04;100.00;96318.84;5030088;28;20442;-76
2021/08/13 03:13:30;;;;;;;9.93;7.93;;;;;;;18.17;100.00;96297.69;5031275;28;20470;-76
2021/08/13 03:15:58;;;;;;;12.13;8.68;;;;;;;18.25;100.00;96307.53;5031105;28;20419;-76
2021/08/13 03:18:24;;;;;;;9.02;7.80;;;;;;;18.17;100.00;96329.16;5031100;28;20410;-76
2021/08/13 03:20:50;;;;;;;9.60;8.32;;;;;;;18.19;100.00;96324.59;5031187;28;20453;-76
2021/08/13 03:23:16;;;;;;;8.70;7.80;;;;;;;18.31;100.00;96320.09;5031149;28;20442;-76
2021/08/13 03:25:43;;;;;;;12.07;7.95;;;;;;;18.36;100.00;96318.75;5029366;28;21019;-76
2021/08/13 03:28:08;;;;;;;10.57;8.88;;;;;;;18.41;100.00;96323.59;5029689;28;20928;-76
2021/08/13 03:30:39;;;;;;;15.67;8.60;;;;;;;18.29;100.00;96343.00;5030987;28;20430;-76
2021/08/13 03:33:08;;;;;;;11.93;7.88;;;;;;;18.24;100.00;96348.59;5030823;28;20788;-77
2021/08/13 03:35:33;;;;;;;12.55;8.02;;;;;;;18.38;100.00;96348.28;5030811;28;20453;-76
2021/08/13 03:37:59;;;;;;;11.00;8.00;;;;;;;18.29;100.00;96335.13;5030783;28;20426;-76
2021/08/13 03:40:24;;;;;;;10.83;7.70;;;;;;;18.27;100.00;96334.41;5030927;28;20415;-76
2021/08/13 03:42:51;;;;;;;9.67;7.60;;;;;;;18.25;100.00;96331.94;5030769;28;20885;-76
2021/08/13 03:45:16;;;;;;;9.88;7.80;;;;;;;18.30;100.00;96335.00;5030780;28;20415;-76
2021/08/13 03:47:41;;;;;;;10.47;7.33;;;;;;;18.35;100.00;96339.84;5030737;28;20426;-76
2021/08/13 03:50:09;;;;;;;10.27;8.03;;;;;;;18.40;100.00;96337.69;5030785;28;20415;-76
2021/08/13 03:52:34;;;;;;;11.45;7.70;;;;;;;18.54;100.00;96339.09;5030474;28;20974;-76
2021/08/13 03:55:00;;;;;;;15.10;7.77;;;;;;;18.97;100.00;96336.25;5029352;28;20434;-76
2021/08/13 03:57:25;;;;;;;11.53;8.00;;;;;;;18.73;100.00;96344.47;5029401;28;20447;-77
2021/08/13 03:59:51;;;;;;;12.98;7.78;;;;;;;18.60;100.00;96343.81;5030673;28;20411;-77
2021/08/13 04:02:16;;;;;;;8.90;7.27;;;;;;;18.49;100.00;96336.88;5029551;28;20785;-76
2021/08/13 04:04:41;;;;;;;9.43;7.80;;;;;;;18.60;100.00;96331.53;5030664;28;20417;-76
2021/08/13 04:07:08;;;;;;;10.52;7.88;;;;;;;18.34;100.00;96339.00;5030473;28;20415;-76
2021/08/13 04:09:33;;;;;;;8.95;8.02;;;;;;;18.02;100.00;96339.13;5029134;28;20929;-76
2021/08/13 04:11:59;;;;;;;12.97;8.50;;;;;;;17.85;100.00;96347.53;5030440;28;20429;-76
2021/08/13 04:14:24;;;;;;;8.70;7.90;;;;;;;17.71;100.00;96347.81;5030969;28;20461;-76
2021/08/13 04:16:50;;;;;;;12.30;8.80;;;;;;;17.67;100.00;96344.63;5030253;28;20427;-76
2021/08/13 04:19:15;;;;;;;13.53;8.70;;;;;;;17.69;100.00;96341.84;5030535;28;20418;-76
2021/08/13 04:21:40;;;;;;;10.43;8.30;;;;;;;17.65;100.00;96352.63;5030353;28;20433;-76
2021/08/13 04:24:07;;;;;;;9.40;7.83;;;;;;;17.59;100.00;96349.66;5045609;28;20407;-76
2021/08/13 04:26:33;;;;;;;13.10;8.73;;;;;;;17.46;100.00;96355.03;5028915;28;20414;-77
2021/08/13 04:28:58;;;;;;;11.80;8.00;;;;;;;17.36;100.00;96354.97;5029351;28;20474;-82
2021/08/13 04:31:24;;;;;;;8.77;7.87;;;;;;;17.49;100.00;96359.22;5034608;28;20490;-81
2021/08/13 04:33:49;;;;;;;11.50;8.35;;;;;;;17.43;100.00;96352.69;5036028;28;20936;-81
2021/08/13 04:36:15;;;;;;;10.30;9.00;;;;;;;17.36;100.00;96359.38;5018043;28;20421;-79
2021/08/13 04:38:40;;;;;;;12.00;8.60;;;;;;;17.47;100.00;96359.34;5012336;28;20417;-80
2021/08/13 04:41:07;;;;;;;9.05;8.05;;;;;;;17.60;100.00;96356.56;5013148;28;20861;-78
2021/08/13 04:43:32;;;;;;;13.05;8.43;;;;;;;17.69;100.00;96357.56;5014472;28;20493;-80
2021/08/13 04:45:58;;;;;;;9.27;8.13;;;;;;;18.00;100.00;96359.38;5014080;28;20511;-79
2021/08/13 04:48:23;;;;;;;8.37;7.17;;;;;;;17.95;100.00;96358.94;5024050;28;20495;-78
2021/08/13 04:50:49;;;;;;;9.13;7.72;;;;;;;17.90;100.00;96361.09;5032280;28;20411;-75
2021/08/13 04:53:14;;;;;;;13.00;8.60;;;;;;;17.83;100.00;96358.13;5033702;28;20789;-75
2021/08/13 04:55:40;;;;;;;9.63;8.30;;;;;;;17.87;100.00;96363.94;5033386;28;20422;-75
2021/08/13 04:58:06;;;;;;;9.40;7.87;;;;;;;17.91;100.00;96354.91;5033539;28;20414;-75
2021/08/13 05:00:32;;;;;;;13.73;8.98;;;;;;;17.82;100.00;96358.28;5040055;28;20500;-75
2021/08/13 05:02:57;;;;;;;10.23;8.15;;;;;;;17.76;100.00;96359.63;5053491;28;20978;-75
2021/08/13 05:05:23;;;;;;;10.00;8.20;;;;;;;17.70;100.00;96362.72;5051964;28;20511;-75
2021/08/13 05:07:48;;;;;;;10.20;8.00;;;;;;;17.82;100.00;96363.50;5053374;28;20841;-76
2021/08/13 05:10:15;;;;;;;9.43;8.20;;;;;;;17.81;100.00;96364.47;5052012;28;20421;-75
2021/08/13 05:12:42;;;;;;;11.15;8.20;;;;;;;17.79;100.00;96369.00;5053257;28;20727;-75
2021/08/13 05:15:10;;;;;;;17.95;9.15;;;;;;;17.81;100.00;96364.47;5052009;28;20532;-75
2021/08/13 05:17:36;;;;;;;11.57;8.37;;;;;;;17.95;100.00;96364.19;5053263;28;20423;-75
2021/08/13 05:20:02;;;;;;;9.37;7.83;;;;;;;18.04;100.00;96365.19;5053266;28;20417;-76
2021/08/13 05:22:27;;;;;;;10.02;7.80;;;;;;;18.11;100.00;96374.22;5053068;28;20447;-77
2021/08/13 05:24:53;;;;;;;16.43;8.83;;;;;;;18.17;100.00;96370.22;5053175;28;20871;-76
2021/08/13 05:27:18;;;;;;;12.13;8.53;;;;;;;18.09;100.00;96371.69;5052739;28;20459;-76
2021/08/13 05:29:44;;;;;;;11.85;7.88;;;;;;;18.21;100.00;96364.63;5051288;28;20421;-76
2021/08/13 05:32:11;;;;;;;8.90;7.35;;;;;;;18.33;100.00;96365.38;5033151;28;20423;-76
2021/08/13 05:34:36;;;;;;;9.73;8.40;;;;;;;18.43;100.00;96368.03;5031801;28;20426;-76
2021/08/13 05:37:02;;;;;;;10.33;8.23;;;;;;;18.46;100.00;96368.59;5031098;28;20504;-76
2021/08/13 05:39:27;;;;;;;11.48;7.93;;;;;;;18.56;100.00;96364.25;5033140;28;20451;-76
2021/08/13 05:41:53;;;;;;;8.93;7.63;;;;;;;18.71;100.00;96372.63;5032811;28;20859;-76
2021/08/13 05:44:18;;;;;;;10.90;8.95;;;;;;;18.83;100.00;96366.31;5033151;28;20407;-76
2021/08/13 05:46:44;;;;;;;12.93;8.70;;;;;;;18.76;100.00;96352.09;5032395;28;20445;-76
2021/08/13 05:49:10;;;;;;;12.23;8.50;;;;;;;18.64;100.00;96360.97;5032549;28;20909;-76
2021/08/13 05:51:54;;;;;;;11.38;8.40;;;;;;;18.51;100.00;96363.81;5022209;28;20843;-82
2021/08/13 05:54:20;;;;;;;10.38;8.65;;;;;;;18.52;100.00;96369.91;5011657;28;20424;-77
2021/08/13 05:56:45;;;;;;;11.75;8.20;;;;;;;18.60;100.00;96372.69;5011060;28;20425;-77
2021/08/13 05:59:10;;;;;;;9.43;8.23;;;;;;;18.71;100.00;96383.13;5012504;28;20907;-78
2021/08/13 06:01:36;;;;;;;10.30;8.47;;;;;;;18.75;100.00;96381.06;5026623;28;20825;-76
2021/08/13 06:04:02;;;;;;;10.52;8.55;;;;;;;18.86;100.00;96384.44;5031672;28;20418;-76
2021/08/13 06:06:28;;;;;;;19.67;8.23;;;;;;;19.00;100.00;96390.28;5031861;28;20447;-77
2021/08/13 06:08:54;;;;;;;14.00;8.35;;;;;;;19.13;100.00;96384.78;5032544;28;20407;-77
2021/08/13 06:11:20;;;;;;;11.17;8.60;;;;;;;19.26;100.00;96385.38;5032360;28;20934;-77
2021/08/13 06:13:45;;;;;;;10.10;8.93;;;;;;;19.45;100.00;96387.22;5032187;28;20423;-77
2021/08/13 06:16:10;;;;;;;9.88;8.32;;;;;;;19.62;98.14;96389.22;5032065;28;20415;-78
2021/08/13 06:18:36;;;;;;;9.30;8.30;;;;;;;19.78;96.62;96380.78;5032018;28;20908;-78
2021/08/13 06:21:02;;;;;;;11.33;8.90;;;;;;;19.82;96.47;96387.41;5032009;28;20422;-78
2021/08/13 06:23:29;;;;;;;11.33;8.47;;;;;;;19.93;95.01;96392.53;5030751;28;20415;-77
2021/08/13 06:25:54;;;;;;;10.73;8.57;;;;;;;20.05;95.03;96406.38;5031791;28;20414;-77
2021/08/13 06:28:21;;;;;;;9.52;8.43;;;;;;;20.26;92.73;96407.03;5040854;28;21289;-77
2021/08/13 06:30:47;;;;;;;13.00;8.87;;;;;;;20.38;91.79;96399.81;5050326;28;21026;-77
2021/08/13 06:33:13;;;;;;;10.30;8.32;;;;;;;20.63;93.32;96400.22;5051778;28;20483;-77
2021/08/13 06:35:38;;;;;;;9.43;7.97;;;;;;;20.75;89.86;96402.53;5051244;28;20886;-77
2021/08/13 06:38:04;;;;;;;9.00;8.00;;;;;;;20.97;88.01;96403.13;5051777;28;20501;-77
2021/08/13 06:40:32;;;;;;;8.77;7.93;;;;;;;21.08;87.13;96394.22;5051739;28;20416;-77
2021/08/13 06:42:58;;;;;;;9.80;7.53;;;;;;;21.30;87.30;96396.47;5051778;28;20936;-76
2021/08/13 06:45:24;;;;;;;9.95;7.93;;;;;;;21.56;84.51;96401.06;5051325;28;20744;-77
2021/08/13 06:47:50;;;;;;;10.97;7.60;;;;;;;21.83;84.60;96400.16;5051698;28;20413;-77
2021/08/13 06:50:15;;;;;;;12.38;7.85;;;;;;;21.74;82.42;96407.19;5051451;28;20493;-77
2021/08/13 06:52:41;;;;;;;12.27;7.70;;;;;;;22.02;82.77;96404.44;5051461;28;20507;-76
2021/08/13 06:55:08;;;;;;;9.60;7.50;;;;;;;22.27;81.46;96398.44;5051165;28;20416;-76
2021/08/13 06:57:35;;;;;;;10.10;7.30;;;;;;;22.20;79.46;96398.19;5051092;28;20463;-76
2021/08/13 07:00:01;;;;;;;11.50;7.45;;;;;;;22.54;79.98;96396.63;5048455;28;20409;-76
2021/08/13 07:02:26;;;;;;;12.73;7.60;;;;;;;22.83;78.47;96399.78;5030489;28;20966;-76
2021/08/13 07:04:51;;;;;;;11.33;7.50;;;;;;;23.14;74.44;96402.78;5031430;28;20497;-76
2021/08/13 07:07:17;;;;;;;8.32;6.70;;;;;;;23.10;74.81;96398.81;5031376;28;20779;-77
2021/08/13 07:09:46;;;;;;;13.63;7.20;;;;;;;22.90;74.91;96407.91;5030329;28;20424;-77
2021/08/13 07:12:11;;;;;;;21.95;6.82;;;;;;;22.81;75.92;96409.69;5030579;28;20423;-77
2021/08/13 07:14:38;;;;;;;9.38;6.38;;;;;;;23.21;75.17;96400.31;5030427;28;20468;-76
2021/08/13 07:17:04;;;;;;;12.45;6.72;;;;;;;23.30;73.41;96395.91;5030973;28;20418;-76
2021/08/13 07:19:29;;;;;;;9.23;6.63;;;;;;;23.57;73.17;96389.53;5031551;28;20418;-77
2021/08/13 07:21:54;;;;;;;10.43;6.37;;;;;;;23.86;72.14;96392.59;5031641;28;20816;-76
2021/08/13 07:24:21;;;;;;;10.00;6.03;;;;;;;24.24;69.21;96395.56;5031207;28;20414;-76
2021/08/13 07:26:47;;;;;;;12.45;6.53;;;;;;;24.11;69.06;96390.78;5031041;28;20427;-77
2021/08/13 07:29:12;;;;;;;9.63;6.10;;;;;;;24.11;68.10;96400.56;5029996;28;20419;-76
2021/08/13 07:31:39;;;;;;;7.53;6.30;;;;;;;23.98;68.30;96402.84;5030927;28;20411;-77
2021/08/13 07:34:04;;;;;;;11.88;6.13;;;;;;;24.35;68.51;96412.94;5029695;28;20490;-77
2021/08/13 07:36:30;;;;;;;8.18;6.05;;;;;;;24.66;66.90;96410.47;5031084;28;20442;-76
2021/08/13 07:38:55;;;;;;;8.93;5.90;;;;;;;24.84;70.65;96407.59;5031322;28;20926;-76
2021/08/13 07:41:21;;;;;;;16.80;5.70;;;;;;;24.99;64.54;96407.72;5031151;28;20497;-76
2021/08/13 07:43:46;;;;;;;9.37;6.07;;;;;;;25.23;65.82;96409.50;5029820;28;20411;-77
2021/08/13 07:46:12;;;;;;;8.48;5.72;;;;;;;24.99;62.92;96413.03;5029390;28;20832;-77
2021/08/13 07:48:39;;;;;;;8.15;5.47;;;;;;;24.87;64.81;96412.56;5029649;28;20454;-77
2021/08/13 07:51:04;;;;;;;8.82;5.30;;;;;;;25.22;65.28;96413.16;5030898;28;20419;-77
2021/08/13 07:53:30;;;;;;;8.97;5.87;;;;;;;25.59;64.52;96423.09;5031170;28;20468;-77
2021/08/13 07:55:55;;;;;;;8.32;5.70;;;;;;;25.87;63.02;96420.78;5030585;28;20845;-77
2021/08/13 07:58:21;;;;;;;12.07;6.30;;;;;;;25.75;62.85;96424.81;5030591;28;20422;-77
2021/08/13 08:00:47;;;;;;;8.77;5.97;;;;;;;25.25;65.02;96428.69;5039201;28;20412;-77
2021/08/13 08:03:13;;;;;;;9.23;6.18;;;;;;;25.14;64.62;96437.88;5050926;28;20425;-77
2021/08/13 08:05:40;;;;;;;10.57;5.95;;;;;;;25.12;64.24;96437.22;5050340;28;20463;-77
2021/08/13 08:08:06;;;;;;;9.10;5.75;;;;;;;25.30;65.61;96429.84;5050807;28;20456;-77
2021/08/13 08:10:31;;;;;;;7.32;5.50;;;;;;;25.77;65.07;96426.31;5050357;28;20464;-77
2021/08/13 08:12:57;;;;;;;9.05;5.78;;;;;;;26.21;64.82;96424.88;5055083;28;20487;-78
2021/08/13 08:15:22;;;;;;;10.37;5.20;;;;;;;26.18;60.72;96420.75;5054491;28;20512;-78
2021/08/13 08:17:48;;;;;;;9.48;5.13;;;;;;;26.37;65.36;96421.28;5055862;28;20413;-75
2021/08/13 08:20:13;;;;;;;9.57;5.60;;;;;;;26.82;63.07;96432.84;5054985;28;20440;-75
2021/08/13 08:22:40;;;;;;;8.80;5.60;;;;;;;26.97;60.99;96429.19;5053701;28;20423;-76
2021/08/13 08:25:07;;;;;;;8.20;5.60;;;;;;;26.85;59.18;96441.28;5053607;28;20507;-76
2021/08/13 08:27:32;;;;;;;10.77;5.30;;;;;;;26.77;58.75;96446.66;5053426;28;20432;-75
2021/08/13 08:29:58;;;;;;;8.57;5.00;;;;;;;26.91;59.30;96456.47;5051421;28;20413;-75
2021/08/13 08:32:23;;;;;;;9.57;5.33;;;;;;;26.96;58.48;96459.44;5033449;28;20449;-76
2021/08/13 08:34:49;;;;;;;9.77;5.05;;;;;;;26.62;59.36;96456.44;5033577;28;20418;-76
2021/08/13 08:37:14;;;;;;;9.37;5.03;;;;;;;26.74;59.86;96447.88;5077820;22;20447;-76
2021/08/13 08:39:43;;;;;;;8.18;4.95;;;;;;;26.85;59.22;96448.44;5054141;28;20471;-77
2021/08/13 08:42:10;;;;;;;8.05;4.97;;;;;;;27.10;61.76;96454.31;5057086;28;20413;-76
2021/08/13 08:44:36;;;;;;;7.93;4.68;;;;;;;27.47;60.17;96445.41;5055329;28;20419;-78
2021/08/13 08:47:02;;;;;;;10.37;5.50;;;;;;;27.46;60.00;96443.78;5056542;28;20508;-77
2021/08/13 08:49:30;;;;;;;10.27;5.13;;;;;;;27.67;57.21;96451.81;5058642;28;20928;-79
2021/08/13 08:51:56;;;;;;;11.18;4.95;;;;;;;27.95;58.04;96440.50;5056433;28;20420;-76
2021/08/13 08:54:24;;;;;;;8.95;5.40;;;;;;;28.27;57.48;96449.84;5054193;28;20513;-77
2021/08/13 08:56:51;;;;;;;10.40;5.28;;;;;;;27.69;56.53;96454.28;5052538;28;20508;-76
2021/08/13 08:59:20;;;;;;;9.43;5.10;;;;;;;27.62;57.68;96456.03;5045390;28;20426;-77
2021/08/13 09:01:45;;;;;;;8.63;4.87;;;;;;;27.67;58.88;96456.34;5034149;28;20407;-77
2021/08/13 09:04:11;;;;;;;9.60;5.07;;;;;;;27.38;57.35;96451.88;5034061;28;20480;-77
2021/08/13 09:06:39;;;;;;;11.30;5.30;;;;;;;27.57;62.03;96458.44;5033689;28;20410;-77
2021/08/13 09:09:05;;;;;;;10.88;5.20;;;;;;;28.11;62.57;96458.91;5033518;28;20419;-76
2021/08/13 09:11:31;;;;;;;7.27;4.90;;;;;;;27.57;57.77;96458.44;5033633;28;20922;-76
2021/08/13 09:14:03;;;;;;;12.63;5.38;;;;;;;27.41;58.27;96456.81;5033509;28;20419;-76
2021/08/13 09:16:28;;;;;;;8.85;4.85;;;;;;;27.34;58.31;96454.06;5033371;28;20772;-77
2021/08/13 09:18:58;;;;;;;9.32;5.32;;;;;;;27.82;57.15;96449.16;5033571;28;20411;-79
2021/08/13 09:21:24;;;;;;;9.60;5.15;;;;;;;27.45;57.18;96453.59;5033515;28;20411;-75
2021/08/13 09:23:50;;;;;;;11.27;5.72;;;;;;;27.67;57.65;96456.34;5032869;28;20411;-76
2021/08/13 09:26:22;;;;;;;11.50;5.35;;;;;;;27.72;60.97;96459.25;5031986;28;20415;-77
2021/08/13 09:28:49;;;;;;;5.80;4.70;;;;;;;28.62;58.42;96461.44;5031974;28;20476;-76
2021/08/13 09:31:19;;;;;;;8.32;5.47;;;;;;;27.99;56.39;96450.56;5031770;28;20457;-77
2021/08/13 09:33:48;;;;;;;9.65;5.72;;;;;;;27.38;58.50;96449.22;5031844;28;20754;-77
2021/08/13 09:36:14;;;;;;;8.88;4.93;;;;;;;28.27;59.05;96457.00;5033299;28;20876;-76
2021/08/13 09:38:40;;;;;;;8.85;5.40;;;;;;;28.46;57.26;96457.22;5033025;28;20541;-76
2021/08/13 09:41:07;;;;;;;11.02;4.90;;;;;;;28.18;56.59;96456.28;5033144;28;20534;-77
2021/08/13 09:43:33;;;;;;;11.57;5.25;;;;;;;28.29;63.60;96462.94;5033277;28;20493;-77
2021/08/13 09:46:05;;;;;;;8.98;5.65;;;;;;;28.49;56.58;96469.34;5032835;28;20983;-76
2021/08/13 09:48:32;;;;;;;8.10;5.63;;;;;;;28.72;58.58;96465.63;5032782;28;20419;-76
2021/08/13 09:50:58;;;;;;;12.23;4.80;;;;;;;29.02;58.05;96467.09;5032921;28;20419;-77
2021/08/13 09:53:23;;;;;;;11.02;5.65;;;;;;;28.90;56.54;96461.47;5031527;28;20428;-77
2021/08/13 09:55:49;;;;;;;10.97;5.63;;;;;;;29.14;55.58;96465.53;5031415;28;20911;-77
2021/08/13 09:58:24;;;;;;;10.00;5.70;;;;;;;29.28;59.73;96465.63;5031436;28;20448;-76
2021/08/13 10:00:50;;;;;;;10.18;5.28;;;;;;;29.55;57.42;96458.56;5032409;28;20939;-77
2021/08/13 10:03:16;;;;;;;8.70;5.53;;;;;;;29.82;57.34;96454.22;5032761;28;20415;-77
2021/08/13 10:05:43;;;;;;;8.57;5.20;;;;;;;29.85;58.25;96456.47;5032458;28;20522;-77
2021/08/13 10:08:09;;;;;;;10.95;5.28;;;;;;;29.79;56.12;96465.28;5032479;28;20486;-75
2021/08/13 10:10:36;;;;;;;8.32;5.60;;;;;;;29.12;53.13;96466.78;5032876;28;20498;-76
2021/08/13 10:13:03;;;;;;;9.70;5.47;;;;;;;28.91;61.62;96462.28;5031457;28;20905;-77
2021/08/13 10:15:31;;;;;;;10.13;5.60;;;;;;;29.54;54.83;96464.94;5032222;28;20522;-76
2021/08/13 10:17:58;;;;;;;9.35;5.63;;;;;;;29.78;53.77;96469.81;5032375;28;20438;-76
2021/08/13 10:20:24;;;;;;;9.83;5.60;;;;;;;29.69;57.11;96472.84;5032514;28;20411;-76
2021/08/13 10:22:51;;;;;;;8.00;5.78;;;;;;;28.87;55.02;96469.84;5032526;28;20419;-77
2021/08/13 10:25:18;;;;;;;9.65;5.70;;;;;;;29.07;55.89;96467.38;5032232;28;20453;-77
2021/08/13 10:27:43;;;;;;;8.77;5.50;;;;;;;28.54;53.99;96466.09;5030982;28;20423;-76
2021/08/13 10:30:10;;;;;;;10.50;5.57;;;;;;;28.32;54.83;96467.91;5030641;28;20430;-76
2021/08/13 10:32:36;;;;;;;7.82;5.63;;;;;;;28.28;56.79;96470.13;5031948;28;20454;-76
2021/08/13 10:35:02;;;;;;;11.10;5.65;;;;;;;27.98;57.26;96470.22;5030104;28;20478;-76
2021/08/13 10:37:28;;;;;;;8.20;5.90;;;;;;;28.08;56.57;96463.78;5030321;28;21013;-76
2021/08/13 10:39:56;;;;;;;10.90;6.38;;;;;;;27.56;58.50;96473.59;5030875;28;20808;-75
2021/08/13 10:42:26;;;;;;;9.05;5.70;;;;;;;27.45;60.06;96466.09;5030863;28;20407;-76
2021/08/13 10:44:56;;;;;;;11.27;6.25;;;;;;;27.18;60.39;96465.72;5030684;28;20438;-76
2021/08/13 10:47:27;;;;;;;7.53;6.13;;;;;;;27.46;61.02;96465.88;5030343;28;20435;-77
2021/08/13 10:49:53;;;;;;;7.65;6.20;;;;;;;27.55;61.00;96465.78;5030633;28;20453;-77
2021/08/13 10:52:32;;;;;;;12.15;6.25;;;;;;;27.52;59.25;96463.50;5030491;28;20415;-77
2021/08/13 10:54:58;;;;;;;8.70;6.13;;;;;;;28.01;59.77;96461.03;5031777;28;20419;-76
2021/08/13 10:57:55;;;;;;;6.70;5.68;;;;;;;28.12;57.03;96457.06;5031213;28;20415;-76
2021/08/13 11:00:21;;;;;;;11.07;6.50;;;;;;;27.56;57.81;96457.63;5031289;28;20415;-78
2021/08/13 11:03:19;;;;;;;11.07;6.50;;;;;;;27.44;59.58;96454.63;5030378;28;20454;-78
2021/08/13 11:05:55;;;;;;;10.48;6.60;;;;;;;27.68;58.57;96458.78;5030388;28;20444;-77
2021/08/13 11:08:21;;;;;;;12.20;6.50;;;;;;;27.72;59.57;96464.56;5031672;28;20422;-77
2021/08/13 11:10:58;;;;;;;9.50;6.13;;;;;;;27.94;55.00;96454.81;5030302;28;20427;-77
2021/08/13 11:13:24;;;;;;;10.50;6.20;;;;;;;28.08;55.06;96448.63;5031339;28;20449;-77
2021/08/13 11:15:49;;;;;;;12.52;6.43;;;;;;;28.09;53.15;96450.25;5031277;28;20485;-76
2021/08/13 11:18:35;;;;;;;11.55;6.68;;;;;;;28.37;55.27;96458.38;5030003;28;20928;-77
2021/08/13 11:21:02;;;;;;;10.93;6.50;;;;;;;28.49;53.68;96458.69;5030015;28;20438;-76
2021/08/13 11:23:28;;;;;;;8.67;6.37;;;;;;;28.48;55.89;96465.03;5029865;28;20911;-76
2021/08/13 11:25:54;;;;;;;10.13;5.93;;;;;;;28.72;54.54;96462.97;5030972;28;20411;-77